Terminal Aerodrome Forecast
Issued by NWS

Home | Current Version | Previous Version | Text Only | Print | Product List | Glossary On
Versions: 1 2 3 4 5 6 7 8 9 10 11 12 13 14
000
FTUS45 KREV 011914 AAA
TAFRNO
TAF AMD
KRNO 011914Z 0119/0218 VRB05KT P6SM FEW090
     FM012100 27014G22KT P6SM FEW100
     FM020200 30011G19KT P6SM SKC
     FM020500 33008KT P6SM SKC=

USA.gov is the U.S. government's official web portal to all federal, state and local government web resources and services.